sensor_id;sensor_type;location;lat;lon;timestamp;temperature;humidity
62906;DHT22;49003;51.038;3.602;2022-07-29T00:01:00;17.20;99.90
62906;DHT22;49003;51.038;3.602;2022-07-29T00:03:28;17.20;99.90
62906;DHT22;49003;51.038;3.602;2022-07-29T00:05:54;17.10;99.90
62906;DHT22;49003;51.038;3.602;2022-07-29T00:08:20;17.10;99.90
62906;DHT22;49003;51.038;3.602;2022-07-29T00:10:46;17.10;99.90
62906;DHT22;49003;51.038;3.602;2022-07-29T00:13:12;17.10;99.90
62906;DHT22;49003;51.038;3.602;2022-07-29T00:15:37;17.00;99.90
62906;DHT22;49003;51.038;3.602;2022-07-29T00:18:03;17.00;99.90
62906;DHT22;49003;51.038;3.602;2022-07-29T00:20:31;17.00;99.90
62906;DHT22;49003;51.038;3.602;2022-07-29T00:22:59;17.00;99.90
62906;DHT22;49003;51.038;3.602;2022-07-29T00:25:25;16.90;99.90
62906;DHT22;49003;51.038;3.602;2022-07-29T00:27:53;16.80;99.90
62906;DHT22;49003;51.038;3.602;2022-07-29T00:30:19;16.80;99.90
62906;DHT22;49003;51.038;3.602;2022-07-29T00:32:44;16.80;99.90
62906;DHT22;49003;51.038;3.602;2022-07-29T00:35:11;16.80;99.90
62906;DHT22;49003;51.038;3.602;2022-07-29T00:37:55;16.80;99.90
62906;DHT22;49003;51.038;3.602;2022-07-29T00:40:23;16.70;99.90
62906;DHT22;49003;51.038;3.602;2022-07-29T00:42:52;16.60;99.90
62906;DHT22;49003;51.038;3.602;2022-07-29T00:45:20;16.50;99.90
62906;DHT22;49003;51.038;3.602;2022-07-29T00:47:47;16.50;99.90
62906;DHT22;49003;51.038;3.602;2022-07-29T00:50:15;16.40;99.90
62906;DHT22;49003;51.038;3.602;2022-07-29T00:52:42;16.40;99.90
62906;DHT22;49003;51.038;3.602;2022-07-29T00:55:11;16.30;99.90
62906;DHT22;49003;51.038;3.602;2022-07-29T00:57:37;16.20;99.90
62906;DHT22;49003;51.038;3.602;2022-07-29T01:00:07;16.20;99.90
62906;DHT22;49003;51.038;3.602;2022-07-29T01:02:34;16.30;99.90
62906;DHT22;49003;51.038;3.602;2022-07-29T01:05:01;16.30;99.90
62906;DHT22;49003;51.038;3.602;2022-07-29T01:07:27;16.20;99.90
62906;DHT22;49003;51.038;3.602;2022-07-29T01:09:56;16.30;99.90
62906;DHT22;49003;51.038;3.602;2022-07-29T01:12:27;16.30;99.90
62906;DHT22;49003;51.038;3.602;2022-07-29T01:14:55;16.20;99.90
62906;DHT22;49003;51.038;3.602;2022-07-29T01:17:36;16.10;99.90
62906;DHT22;49003;51.038;3.602;2022-07-29T01:20:10;15.90;99.90
62906;DHT22;49003;51.038;3.602;2022-07-29T01:31:03;15.40;99.90
62906;DHT22;49003;51.038;3.602;2022-07-29T01:33:36;15.30;99.90
62906;DHT22;49003;51.038;3.602;2022-07-29T01:36:55;15.20;99.90
62906;DHT22;49003;51.038;3.602;2022-07-29T01:39:23;15.10;99.90
62906;DHT22;49003;51.038;3.602;2022-07-29T01:42:06;15.10;99.90
62906;DHT22;49003;51.038;3.602;2022-07-29T01:44:40;15.00;99.90
62906;DHT22;49003;51.038;3.602;2022-07-29T01:47:14;14.90;99.90
62906;DHT22;49003;51.038;3.602;2022-07-29T01:49:49;14.90;99.90
62906;DHT22;49003;51.038;3.602;2022-07-29T01:52:21;14.80;99.90
62906;DHT22;49003;51.038;3.602;2022-07-29T01:54:55;14.80;99.90
62906;DHT22;49003;51.038;3.602;2022-07-29T01:57:28;14.80;99.90
62906;DHT22;49003;51.038;3.602;2022-07-29T01:59:56;14.70;99.90
62906;DHT22;49003;51.038;3.602;2022-07-29T02:02:24;14.60;99.90
62906;DHT22;49003;51.038;3.602;2022-07-29T02:04:54;14.60;99.90
62906;DHT22;49003;51.038;3.602;2022-07-29T02:07:22;14.50;99.90
62906;DHT22;49003;51.038;3.602;2022-07-29T02:09:50;14.40;99.90
62906;DHT22;49003;51.038;3.602;2022-07-29T02:12:18;14.30;99.90
62906;DHT22;49003;51.038;3.602;2022-07-29T02:14:47;14.30;99.90
62906;DHT22;49003;51.038;3.602;2022-07-29T02:17:27;14.20;99.90
62906;DHT22;49003;51.038;3.602;2022-07-29T02:19:57;14.10;99.90
62906;DHT22;49003;51.038;3.602;2022-07-29T02:22:25;14.00;99.90
62906;DHT22;49003;51.038;3.602;2022-07-29T02:24:53;13.90;99.90
62906;DHT22;49003;51.038;3.602;2022-07-29T02:27:20;13.80;99.90
62906;DHT22;49003;51.038;3.602;2022-07-29T02:29:47;13.80;99.90
62906;DHT22;49003;51.038;3.602;2022-07-29T02:32:15;13.80;99.90
62906;DHT22;49003;51.038;3.602;2022-07-29T02:34:42;13.70;99.90
62906;DHT22;49003;51.038;3.602;2022-07-29T02:37:09;13.60;99.90
62906;DHT22;49003;51.038;3.602;2022-07-29T02:39:37;13.50;99.90
62906;DHT22;49003;51.038;3.602;2022-07-29T02:42:09;13.40;99.90
62906;DHT22;49003;51.038;3.602;2022-07-29T02:44:35;13.30;99.90
62906;DHT22;49003;51.038;3.602;2022-07-29T02:52:47;13.20;99.90
62906;DHT22;49003;51.038;3.602;2022-07-29T02:58:05;13.10;99.90
62906;DHT22;49003;51.038;3.602;2022-07-29T03:00:37;13.10;99.90
62906;DHT22;49003;51.038;3.602;2022-07-29T03:03:06;13.10;99.90
62906;DHT22;49003;51.038;3.602;2022-07-29T03:05:33;13.10;99.90
62906;DHT22;49003;51.038;3.602;2022-07-29T03:08:04;13.00;99.90
62906;DHT22;49003;51.038;3.602;2022-07-29T03:10:33;12.90;99.90
62906;DHT22;49003;51.038;3.602;2022-07-29T03:13:00;12.80;99.90
62906;DHT22;49003;51.038;3.602;2022-07-29T03:15:30;12.80;99.90
62906;DHT22;49003;51.038;3.602;2022-07-29T03:17:57;12.70;99.90
62906;DHT22;49003;51.038;3.602;2022-07-29T03:20:24;12.60;99.90
62906;DHT22;49003;51.038;3.602;2022-07-29T03:22:50;12.70;99.90
62906;DHT22;49003;51.038;3.602;2022-07-29T03:25:18;12.70;99.90
62906;DHT22;49003;51.038;3.602;2022-07-29T03:27:48;12.60;99.90
62906;DHT22;49003;51.038;3.602;2022-07-29T03:30:14;12.60;99.90
62906;DHT22;49003;51.038;3.602;2022-07-29T03:32:41;12.50;99.90
62906;DHT22;49003;51.038;3.602;2022-07-29T03:35:07;12.40;99.90
62906;DHT22;49003;51.038;3.602;2022-07-29T03:37:36;12.40;99.90
62906;DHT22;49003;51.038;3.602;2022-07-29T03:40:05;12.30;99.90
62906;DHT22;49003;51.038;3.602;2022-07-29T03:42:33;12.30;99.90
62906;DHT22;49003;51.038;3.602;2022-07-29T03:45:05;12.30;99.90
62906;DHT22;49003;51.038;3.602;2022-07-29T03:47:36;12.20;99.90
62906;DHT22;49003;51.038;3.602;2022-07-29T03:50:09;12.20;99.90
62906;DHT22;49003;51.038;3.602;2022-07-29T03:52:38;12.20;99.90
62906;DHT22;49003;51.038;3.602;2022-07-29T03:55:05;12.20;99.90
62906;DHT22;49003;51.038;3.602;2022-07-29T03:57:31;12.20;99.90
62906;DHT22;49003;51.038;3.602;2022-07-29T03:59:58;12.10;99.90
62906;DHT22;49003;51.038;3.602;2022-07-29T04:02:26;12.10;99.90
62906;DHT22;49003;51.038;3.602;2022-07-29T04:04:52;12.10;99.90
62906;DHT22;49003;51.038;3.602;2022-07-29T04:07:18;12.10;99.90
62906;DHT22;49003;51.038;3.602;2022-07-29T04:09:46;12.10;99.90
62906;DHT22;49003;51.038;3.602;2022-07-29T04:12:11;12.20;99.90
62906;DHT22;49003;51.038;3.602;2022-07-29T04:14:37;12.30;99.90
62906;DHT22;49003;51.038;3.602;2022-07-29T04:17:06;12.30;99.90
62906;DHT22;49003;51.038;3.602;2022-07-29T04:19:32;12.20;99.90
62906;DHT22;49003;51.038;3.602;2022-07-29T04:22:00;12.30;99.90
62906;DHT22;49003;51.038;3.602;2022-07-29T04:24:26;12.30;99.90
62906;DHT22;49003;51.038;3.602;2022-07-29T04:26:55;12.30;99.90
62906;DHT22;49003;51.038;3.602;2022-07-29T04:29:20;12.30;99.90
62906;DHT22;49003;51.038;3.602;2022-07-29T04:31:46;12.30;99.90
62906;DHT22;49003;51.038;3.602;2022-07-29T04:34:14;12.30;99.90
62906;DHT22;49003;51.038;3.602;2022-07-29T04:36:40;12.30;99.90
62906;DHT22;49003;51.038;3.602;2022-07-29T04:39:05;12.40;99.90
62906;DHT22;49003;51.038;3.602;2022-07-29T04:41:31;12.40;99.90
62906;DHT22;49003;51.038;3.602;2022-07-29T04:43:57;12.50;99.90
62906;DHT22;49003;51.038;3.602;2022-07-29T04:46:23;12.50;99.90
62906;DHT22;49003;51.038;3.602;2022-07-29T04:48:48;12.60;99.90
62906;DHT22;49003;51.038;3.602;2022-07-29T04:51:15;12.80;99.90
62906;DHT22;49003;51.038;3.602;2022-07-29T04:53:41;12.80;99.90
62906;DHT22;49003;51.038;3.602;2022-07-29T04:56:06;13.00;99.90
62906;DHT22;49003;51.038;3.602;2022-07-29T04:58:34;13.10;99.90
62906;DHT22;49003;51.038;3.602;2022-07-29T05:01:00;13.20;99.90
62906;DHT22;49003;51.038;3.602;2022-07-29T05:03:26;13.30;99.90
62906;DHT22;49003;51.038;3.602;2022-07-29T05:05:51;13.50;99.90
62906;DHT22;49003;51.038;3.602;2022-07-29T05:08:17;13.60;99.90
62906;DHT22;49003;51.038;3.602;2022-07-29T05:10:43;13.80;99.90
62906;DHT22;49003;51.038;3.602;2022-07-29T05:13:08;13.90;99.90
62906;DHT22;49003;51.038;3.602;2022-07-29T05:15:36;14.00;99.90
62906;DHT22;49003;51.038;3.602;2022-07-29T05:18:05;14.20;99.90
62906;DHT22;49003;51.038;3.602;2022-07-29T05:20:31;14.40;99.90
62906;DHT22;49003;51.038;3.602;2022-07-29T05:22:58;14.40;99.90
62906;DHT22;49003;51.038;3.602;2022-07-29T05:25:25;14.50;99.90
62906;DHT22;49003;51.038;3.602;2022-07-29T05:27:51;14.70;99.90
62906;DHT22;49003;51.038;3.602;2022-07-29T05:30:20;14.70;99.90
62906;DHT22;49003;51.038;3.602;2022-07-29T05:32:46;14.80;99.90
62906;DHT22;49003;51.038;3.602;2022-07-29T05:35:12;14.90;99.90
62906;DHT22;49003;51.038;3.602;2022-07-29T05:37:38;14.90;99.90
62906;DHT22;49003;51.038;3.602;2022-07-29T05:40:07;15.00;99.90
62906;DHT22;49003;51.038;3.602;2022-07-29T05:42:34;15.10;99.90
62906;DHT22;49003;51.038;3.602;2022-07-29T05:45:00;15.20;99.90
62906;DHT22;49003;51.038;3.602;2022-07-29T05:47:26;15.30;99.90
62906;DHT22;49003;51.038;3.602;2022-07-29T05:49:51;15.40;99.90
62906;DHT22;49003;51.038;3.602;2022-07-29T05:52:17;15.60;99.90
62906;DHT22;49003;51.038;3.602;2022-07-29T05:54:43;15.70;99.90
62906;DHT22;49003;51.038;3.602;2022-07-29T05:57:18;15.80;99.90
62906;DHT22;49003;51.038;3.602;2022-07-29T05:59:47;15.90;99.90
62906;DHT22;49003;51.038;3.602;2022-07-29T06:02:14;16.00;99.90
62906;DHT22;49003;51.038;3.602;2022-07-29T06:04:39;16.10;99.90
62906;DHT22;49003;51.038;3.602;2022-07-29T06:07:05;16.20;99.90
62906;DHT22;49003;51.038;3.602;2022-07-29T06:09:34;16.40;99.90
62906;DHT22;49003;51.038;3.602;2022-07-29T06:12:00;16.50;99.90
62906;DHT22;49003;51.038;3.602;2022-07-29T06:14:26;16.60;99.90
62906;DHT22;49003;51.038;3.602;2022-07-29T06:16:52;16.70;99.90
62906;DHT22;49003;51.038;3.602;2022-07-29T06:19:18;17.00;99.90
62906;DHT22;49003;51.038;3.602;2022-07-29T06:21:45;17.00;99.90
62906;DHT22;49003;51.038;3.602;2022-07-29T06:24:14;17.10;99.90
62906;DHT22;49003;51.038;3.602;2022-07-29T06:26:41;17.20;99.90
62906;DHT22;49003;51.038;3.602;2022-07-29T06:29:07;17.30;99.90
62906;DHT22;49003;51.038;3.602;2022-07-29T06:31:34;17.50;99.90
62906;DHT22;49003;51.038;3.602;2022-07-29T06:33:59;17.50;99.90
62906;DHT22;49003;51.038;3.602;2022-07-29T06:36:28;17.50;99.90
62906;DHT22;49003;51.038;3.602;2022-07-29T06:38:56;17.60;99.90
62906;DHT22;49003;51.038;3.602;2022-07-29T06:41:24;17.90;99.90
62906;DHT22;49003;51.038;3.602;2022-07-29T06:43:49;17.90;99.90
62906;DHT22;49003;51.038;3.602;2022-07-29T06:46:17;18.00;99.90
62906;DHT22;49003;51.038;3.602;2022-07-29T06:48:43;18.20;99.90
62906;DHT22;49003;51.038;3.602;2022-07-29T06:51:10;18.20;99.90
62906;DHT22;49003;51.038;3.602;2022-07-29T06:53:37;18.40;99.90
62906;DHT22;49003;51.038;3.602;2022-07-29T06:56:08;18.40;99.90
62906;DHT22;49003;51.038;3.602;2022-07-29T06:58:35;18.50;99.90
62906;DHT22;49003;51.038;3.602;2022-07-29T07:01:04;18.50;99.90
62906;DHT22;49003;51.038;3.602;2022-07-29T07:03:30;18.70;99.90
62906;DHT22;49003;51.038;3.602;2022-07-29T07:05:58;18.60;99.90
62906;DHT22;49003;51.038;3.602;2022-07-29T07:08:24;18.70;99.90
62906;DHT22;49003;51.038;3.602;2022-07-29T07:10:53;18.80;99.90
62906;DHT22;49003;51.038;3.602;2022-07-29T07:13:19;19.00;99.90
62906;DHT22;49003;51.038;3.602;2022-07-29T07:15:45;19.00;99.90
62906;DHT22;49003;51.038;3.602;2022-07-29T07:18:15;19.00;99.90
62906;DHT22;49003;51.038;3.602;2022-07-29T07:20:41;19.10;99.90
62906;DHT22;49003;51.038;3.602;2022-07-29T07:23:07;19.10;99.90
62906;DHT22;49003;51.038;3.602;2022-07-29T07:25:33;19.10;99.90
62906;DHT22;49003;51.038;3.602;2022-07-29T07:27:58;19.20;99.90
62906;DHT22;49003;51.038;3.602;2022-07-29T07:30:26;19.20;99.90
62906;DHT22;49003;51.038;3.602;2022-07-29T07:32:52;19.40;99.90
62906;DHT22;49003;51.038;3.602;2022-07-29T07:35:18;19.50;99.90
62906;DHT22;49003;51.038;3.602;2022-07-29T07:37:45;19.50;99.90
62906;DHT22;49003;51.038;3.602;2022-07-29T07:40:12;19.50;99.90
62906;DHT22;49003;51.038;3.602;2022-07-29T07:42:39;19.50;99.90
62906;DHT22;49003;51.038;3.602;2022-07-29T07:45:06;19.60;99.90
62906;DHT22;49003;51.038;3.602;2022-07-29T07:47:32;19.50;99.90
62906;DHT22;49003;51.038;3.602;2022-07-29T07:49:58;19.60;99.90
62906;DHT22;49003;51.038;3.602;2022-07-29T07:52:24;19.70;99.90
62906;DHT22;49003;51.038;3.602;2022-07-29T07:54:49;20.00;99.90
62906;DHT22;49003;51.038;3.602;2022-07-29T07:57:15;20.10;99.90
62906;DHT22;49003;51.038;3.602;2022-07-29T07:59:41;20.20;99.90
62906;DHT22;49003;51.038;3.602;2022-07-29T08:02:10;20.10;99.90
62906;DHT22;49003;51.038;3.602;2022-07-29T08:04:35;20.00;99.90
62906;DHT22;49003;51.038;3.602;2022-07-29T08:07:02;20.00;99.90
62906;DHT22;49003;51.038;3.602;2022-07-29T08:09:30;20.40;99.90
62906;DHT22;49003;51.038;3.602;2022-07-29T08:11:56;20.50;99.90
62906;DHT22;49003;51.038;3.602;2022-07-29T08:14:22;20.60;99.90
62906;DHT22;49003;51.038;3.602;2022-07-29T08:16:48;20.60;99.90
62906;DHT22;49003;51.038;3.602;2022-07-29T08:19:14;20.70;99.90
62906;DHT22;49003;51.038;3.602;2022-07-29T08:21:42;20.80;99.90
62906;DHT22;49003;51.038;3.602;2022-07-29T08:24:08;20.70;99.90
62906;DHT22;49003;51.038;3.602;2022-07-29T08:26:55;20.70;99.90
62906;DHT22;49003;51.038;3.602;2022-07-29T08:29:21;20.90;99.90
62906;DHT22;49003;51.038;3.602;2022-07-29T08:31:46;20.90;99.90
62906;DHT22;49003;51.038;3.602;2022-07-29T08:34:14;20.90;99.90
62906;DHT22;49003;51.038;3.602;2022-07-29T08:36:40;21.00;99.90
62906;DHT22;49003;51.038;3.602;2022-07-29T08:39:07;21.20;99.90
62906;DHT22;49003;51.038;3.602;2022-07-29T08:41:33;21.30;99.90
62906;DHT22;49003;51.038;3.602;2022-07-29T08:43:59;21.30;99.90
62906;DHT22;49003;51.038;3.602;2022-07-29T08:46:25;21.30;99.90
62906;DHT22;49003;51.038;3.602;2022-07-29T08:48:51;21.40;99.90
62906;DHT22;49003;51.038;3.602;2022-07-29T08:51:18;21.50;99.90
62906;DHT22;49003;51.038;3.602;2022-07-29T08:53:46;21.60;99.90
62906;DHT22;49003;51.038;3.602;2022-07-29T08:56:17;21.80;99.90
62906;DHT22;49003;51.038;3.602;2022-07-29T08:58:44;21.90;99.90
62906;DHT22;49003;51.038;3.602;2022-07-29T09:01:11;21.70;99.90
62906;DHT22;49003;51.038;3.602;2022-07-29T09:03:37;21.80;99.90
62906;DHT22;49003;51.038;3.602;2022-07-29T09:06:04;21.90;99.90
62906;DHT22;49003;51.038;3.602;2022-07-29T09:08:33;22.10;99.90
62906;DHT22;49003;51.038;3.602;2022-07-29T09:11:02;22.20;99.90
62906;DHT22;49003;51.038;3.602;2022-07-29T09:13:28;22.30;99.90
62906;DHT22;49003;51.038;3.602;2022-07-29T09:15:54;22.30;99.90
62906;DHT22;49003;51.038;3.602;2022-07-29T09:18:41;22.40;99.90
62906;DHT22;49003;51.038;3.602;2022-07-29T09:21:09;22.40;99.90
62906;DHT22;49003;51.038;3.602;2022-07-29T09:26:33;22.30;99.90
62906;DHT22;49003;51.038;3.602;2022-07-29T09:28:59;22.40;99.90
62906;DHT22;49003;51.038;3.602;2022-07-29T09:31:49;22.40;99.90
62906;DHT22;49003;51.038;3.602;2022-07-29T09:34:20;22.20;99.90
62906;DHT22;49003;51.038;3.602;2022-07-29T09:36:49;22.30;99.90
62906;DHT22;49003;51.038;3.602;2022-07-29T09:39:25;22.40;99.90
62906;DHT22;49003;51.038;3.602;2022-07-29T09:41:55;22.50;99.90
62906;DHT22;49003;51.038;3.602;2022-07-29T09:44:22;22.60;99.90
62906;DHT22;49003;51.038;3.602;2022-07-29T09:47:04;22.80;99.90
62906;DHT22;49003;51.038;3.602;2022-07-29T09:49:58;22.90;99.80
62906;DHT22;49003;51.038;3.602;2022-07-29T09:52:25;22.90;99.30
62906;DHT22;49003;51.038;3.602;2022-07-29T09:54:51;22.90;99.20
62906;DHT22;49003;51.038;3.602;2022-07-29T09:57:28;23.10;99.00
62906;DHT22;49003;51.038;3.602;2022-07-29T10:00:05;23.10;98.60
62906;DHT22;49003;51.038;3.602;2022-07-29T10:02:34;23.00;98.50
62906;DHT22;49003;51.038;3.602;2022-07-29T10:05:04;23.00;98.80
62906;DHT22;49003;51.038;3.602;2022-07-29T10:10:28;22.90;96.70
62906;DHT22;49003;51.038;3.602;2022-07-29T10:13:01;23.00;97.20
62906;DHT22;49003;51.038;3.602;2022-07-29T10:15:30;23.10;96.60
62906;DHT22;49003;51.038;3.602;2022-07-29T10:17:58;23.40;96.10
62906;DHT22;49003;51.038;3.602;2022-07-29T10:20:25;23.70;96.10
62906;DHT22;49003;51.038;3.602;2022-07-29T10:22:51;24.00;94.50
62906;DHT22;49003;51.038;3.602;2022-07-29T10:25:20;24.20;94.50
62906;DHT22;49003;51.038;3.602;2022-07-29T10:27:47;24.20;95.40
62906;DHT22;49003;51.038;3.602;2022-07-29T10:30:15;24.20;94.30
62906;DHT22;49003;51.038;3.602;2022-07-29T10:44:03;25.10;93.10
62906;DHT22;49003;51.038;3.602;2022-07-29T10:46:36;25.00;91.50
62906;DHT22;49003;51.038;3.602;2022-07-29T10:49:14;25.00;91.10
62906;DHT22;49003;51.038;3.602;2022-07-29T10:52:00;25.20;92.20
62906;DHT22;49003;51.038;3.602;2022-07-29T10:54:42;25.70;91.20
62906;DHT22;49003;51.038;3.602;2022-07-29T10:57:28;25.40;91.20
62906;DHT22;49003;51.038;3.602;2022-07-29T11:07:37;24.80;91.20
62906;DHT22;49003;51.038;3.602;2022-07-29T11:15:04;25.30;90.60
62906;DHT22;49003;51.038;3.602;2022-07-29T11:22:59;25.50;87.40
62906;DHT22;49003;51.038;3.602;2022-07-29T11:25:25;25.90;87.90
62906;DHT22;49003;51.038;3.602;2022-07-29T11:27:53;26.30;87.10
62906;DHT22;49003;51.038;3.602;2022-07-29T11:30:19;26.10;85.40
62906;DHT22;49003;51.038;3.602;2022-07-29T11:32:45;25.90;86.70
62906;DHT22;49003;51.038;3.602;2022-07-29T11:35:25;26.10;83.90
62906;DHT22;49003;51.038;3.602;2022-07-29T11:43:59;25.50;83.90
62906;DHT22;49003;51.038;3.602;2022-07-29T11:46:45;25.30;87.60
62906;DHT22;49003;51.038;3.602;2022-07-29T11:49:22;25.60;85.60
62906;DHT22;49003;51.038;3.602;2022-07-29T11:51:56;25.80;83.90
62906;DHT22;49003;51.038;3.602;2022-07-29T11:54:32;26.10;87.10
62906;DHT22;49003;51.038;3.602;2022-07-29T11:56:59;26.60;87.00
62906;DHT22;49003;51.038;3.602;2022-07-29T11:59:27;26.80;85.60
62906;DHT22;49003;51.038;3.602;2022-07-29T12:01:55;26.80;85.20
62906;DHT22;49003;51.038;3.602;2022-07-29T12:04:21;26.30;85.10
62906;DHT22;49003;51.038;3.602;2022-07-29T12:06:58;26.30;86.30
62906;DHT22;49003;51.038;3.602;2022-07-29T12:09:25;26.60;86.20
62906;DHT22;49003;51.038;3.602;2022-07-29T12:11:57;26.30;85.10
62906;DHT22;49003;51.038;3.602;2022-07-29T12:14:28;26.30;86.80
62906;DHT22;49003;51.038;3.602;2022-07-29T12:16:53;26.20;85.50
62906;DHT22;49003;51.038;3.602;2022-07-29T12:19:19;26.50;83.70
62906;DHT22;49003;51.038;3.602;2022-07-29T12:21:53;26.60;83.60
62906;DHT22;49003;51.038;3.602;2022-07-29T12:24:23;27.10;84.80
62906;DHT22;49003;51.038;3.602;2022-07-29T12:26:51;27.50;80.40
62906;DHT22;49003;51.038;3.602;2022-07-29T12:29:17;27.60;81.80
62906;DHT22;49003;51.038;3.602;2022-07-29T12:31:46;27.90;78.50
62906;DHT22;49003;51.038;3.602;2022-07-29T12:34:15;27.10;79.90
62906;DHT22;49003;51.038;3.602;2022-07-29T12:36:42;26.50;79.00
62906;DHT22;49003;51.038;3.602;2022-07-29T12:39:11;26.50;80.40
62906;DHT22;49003;51.038;3.602;2022-07-29T12:41:39;26.00;81.50
62906;DHT22;49003;51.038;3.602;2022-07-29T12:44:07;26.60;81.80
62906;DHT22;49003;51.038;3.602;2022-07-29T12:46:35;26.90;79.70
62906;DHT22;49003;51.038;3.602;2022-07-29T12:49:03;27.50;82.70
62906;DHT22;49003;51.038;3.602;2022-07-29T12:51:34;27.60;81.90
62906;DHT22;49003;51.038;3.602;2022-07-29T12:54:12;27.30;83.40
62906;DHT22;49003;51.038;3.602;2022-07-29T12:56:42;27.40;82.90
62906;DHT22;49003;51.038;3.602;2022-07-29T12:59:17;27.00;83.40
62906;DHT22;49003;51.038;3.602;2022-07-29T13:01:44;27.50;84.70
62906;DHT22;49003;51.038;3.602;2022-07-29T13:04:31;28.20;83.00
62906;DHT22;49003;51.038;3.602;2022-07-29T13:07:06;28.10;80.10
62906;DHT22;49003;51.038;3.602;2022-07-29T13:12:09;28.40;82.90
62906;DHT22;49003;51.038;3.602;2022-07-29T13:14:39;27.50;79.70
62906;DHT22;49003;51.038;3.602;2022-07-29T13:17:10;26.70;82.80
62906;DHT22;49003;51.038;3.602;2022-07-29T13:19:45;26.20;83.20
62906;DHT22;49003;51.038;3.602;2022-07-29T13:22:15;25.70;83.80
62906;DHT22;49003;51.038;3.602;2022-07-29T13:24:47;25.80;83.10
62906;DHT22;49003;51.038;3.602;2022-07-29T13:27:17;25.90;84.40
62906;DHT22;49003;51.038;3.602;2022-07-29T13:29:43;26.00;84.30
62906;DHT22;49003;51.038;3.602;2022-07-29T13:32:09;26.00;84.90
62906;DHT22;49003;51.038;3.602;2022-07-29T13:34:34;26.30;84.50
62906;DHT22;49003;51.038;3.602;2022-07-29T13:37:00;26.90;85.90
62906;DHT22;49003;51.038;3.602;2022-07-29T13:39:26;27.70;81.30
62906;DHT22;49003;51.038;3.602;2022-07-29T13:41:51;28.30;80.40
62906;DHT22;49003;51.038;3.602;2022-07-29T13:44:20;28.60;81.60
62906;DHT22;49003;51.038;3.602;2022-07-29T13:46:45;29.00;76.10
62906;DHT22;49003;51.038;3.602;2022-07-29T13:49:11;28.40;78.00
62906;DHT22;49003;51.038;3.602;2022-07-29T13:51:37;28.40;77.70
62906;DHT22;49003;51.038;3.602;2022-07-29T13:54:03;27.70;78.10
62906;DHT22;49003;51.038;3.602;2022-07-29T13:56:29;27.00;79.80
62906;DHT22;49003;51.038;3.602;2022-07-29T13:58:55;26.50;80.90
62906;DHT22;49003;51.038;3.602;2022-07-29T14:01:23;26.40;80.60
62906;DHT22;49003;51.038;3.602;2022-07-29T14:03:49;26.40;82.30
62906;DHT22;49003;51.038;3.602;2022-07-29T14:06:15;26.60;79.90
62906;DHT22;49003;51.038;3.602;2022-07-29T14:08:43;26.80;78.40
62906;DHT22;49003;51.038;3.602;2022-07-29T14:11:09;28.00;78.90
62906;DHT22;49003;51.038;3.602;2022-07-29T14:13:34;28.50;77.90
62906;DHT22;49003;51.038;3.602;2022-07-29T14:16:01;28.70;75.80
62906;DHT22;49003;51.038;3.602;2022-07-29T14:18:27;28.20;76.60
62906;DHT22;49003;51.038;3.602;2022-07-29T14:20:52;27.00;77.00
62906;DHT22;49003;51.038;3.602;2022-07-29T14:23:20;26.90;79.60
62906;DHT22;49003;51.038;3.602;2022-07-29T14:25:46;27.30;78.70
62906;DHT22;49003;51.038;3.602;2022-07-29T14:28:14;27.90;77.40
62906;DHT22;49003;51.038;3.602;2022-07-29T14:30:40;27.30;76.70
62906;DHT22;49003;51.038;3.602;2022-07-29T14:33:05;26.50;78.30
62906;DHT22;49003;51.038;3.602;2022-07-29T14:35:33;26.20;79.70
62906;DHT22;49003;51.038;3.602;2022-07-29T14:38:01;26.50;80.60
62906;DHT22;49003;51.038;3.602;2022-07-29T14:40:26;26.70;80.60
62906;DHT22;49003;51.038;3.602;2022-07-29T14:42:54;27.40;79.50
62906;DHT22;49003;51.038;3.602;2022-07-29T14:45:20;27.00;79.80
62906;DHT22;49003;51.038;3.602;2022-07-29T14:47:46;26.40;80.10
62906;DHT22;49003;51.038;3.602;2022-07-29T14:50:11;26.40;81.80
62906;DHT22;49003;51.038;3.602;2022-07-29T14:52:37;26.50;82.60
62906;DHT22;49003;51.038;3.602;2022-07-29T14:55:04;29.00;76.90
62906;DHT22;49003;51.038;3.602;2022-07-29T14:57:33;31.10;75.30
62906;DHT22;49003;51.038;3.602;2022-07-29T14:59:59;32.30;70.70
62906;DHT22;49003;51.038;3.602;2022-07-29T15:02:24;32.40;70.70
62906;DHT22;49003;51.038;3.602;2022-07-29T15:04:50;32.90;69.60
62906;DHT22;49003;51.038;3.602;2022-07-29T15:07:18;31.90;69.30
62906;DHT22;49003;51.038;3.602;2022-07-29T15:09:44;31.00;70.70
62906;DHT22;49003;51.038;3.602;2022-07-29T15:12:13;31.10;72.00
62906;DHT22;49003;51.038;3.602;2022-07-29T15:14:38;30.80;71.10
62906;DHT22;49003;51.038;3.602;2022-07-29T15:17:09;32.20;71.00
62906;DHT22;49003;51.038;3.602;2022-07-29T15:19:37;33.30;68.90
62906;DHT22;49003;51.038;3.602;2022-07-29T15:22:05;32.70;68.50
62906;DHT22;49003;51.038;3.602;2022-07-29T15:24:33;31.80;69.80
62906;DHT22;49003;51.038;3.602;2022-07-29T15:27:04;31.50;70.00
62906;DHT22;49003;51.038;3.602;2022-07-29T15:29:30;31.40;70.50
62906;DHT22;49003;51.038;3.602;2022-07-29T15:32:00;31.60;70.20
62906;DHT22;49003;51.038;3.602;2022-07-29T15:34:26;30.90;69.90
62906;DHT22;49003;51.038;3.602;2022-07-29T15:36:54;30.90;70.10
62906;DHT22;49003;51.038;3.602;2022-07-29T15:39:20;30.70;70.80
62906;DHT22;49003;51.038;3.602;2022-07-29T15:41:47;31.10;70.40
62906;DHT22;49003;51.038;3.602;2022-07-29T15:44:13;31.00;69.40
62906;DHT22;49003;51.038;3.602;2022-07-29T15:46:38;31.00;69.90
62906;DHT22;49003;51.038;3.602;2022-07-29T15:49:22;31.10;69.60
62906;DHT22;49003;51.038;3.602;2022-07-29T15:51:50;32.00;69.20
62906;DHT22;49003;51.038;3.602;2022-07-29T15:54:16;31.80;67.80
62906;DHT22;49003;51.038;3.602;2022-07-29T15:56:42;31.50;67.80
62906;DHT22;49003;51.038;3.602;2022-07-29T15:59:07;30.50;69.30
62906;DHT22;49003;51.038;3.602;2022-07-29T16:01:35;30.20;69.80
62906;DHT22;49003;51.038;3.602;2022-07-29T16:04:01;30.10;71.30
62906;DHT22;49003;51.038;3.602;2022-07-29T16:06:29;30.40;70.40
62906;DHT22;49003;51.038;3.602;2022-07-29T16:08:57;30.30;70.20
62906;DHT22;49003;51.038;3.602;2022-07-29T16:11:25;30.90;68.90
62906;DHT22;49003;51.038;3.602;2022-07-29T16:13:50;30.60;69.20
62906;DHT22;49003;51.038;3.602;2022-07-29T16:16:16;30.50;70.80
62906;DHT22;49003;51.038;3.602;2022-07-29T16:18:43;30.70;70.40
62906;DHT22;49003;51.038;3.602;2022-07-29T16:21:10;31.10;69.30
62906;DHT22;49003;51.038;3.602;2022-07-29T16:23:38;30.60;70.00
62906;DHT22;49003;51.038;3.602;2022-07-29T16:26:04;31.10;69.00
62906;DHT22;49003;51.038;3.602;2022-07-29T16:28:30;31.20;68.30
62906;DHT22;49003;51.038;3.602;2022-07-29T16:30:56;31.20;68.20
62906;DHT22;49003;51.038;3.602;2022-07-29T16:33:22;30.70;68.60
62906;DHT22;49003;51.038;3.602;2022-07-29T16:35:50;30.70;70.20
62906;DHT22;49003;51.038;3.602;2022-07-29T16:38:16;30.80;68.60